Terminal Aerodrome Forecast
Issued by NWS

Home | Current Version | Previous Version | Graphics & Text | Print | Product List | Glossary On
Versions: 1 2 3 4 5 6 7 8 9 10 11 12 13 14 15 16
000
FTUS43 KICT 192037 AAA
TAFSLN
TAF AMD
KSLN 192037Z 1921/2018 17014G20KT P6SM BKN012
      TEMPO 2000/2003 4SM BR OVC007
     FM200300 16014G20KT 4SM -SHRA BR VCTS OVC010CB
     FM201300 19013KT P6SM OVC014=

USA.gov is the U.S. government's official web portal to all federal, state and local government web resources and services.